Time;durP1;ratioP1;P1;durP2;ratioP2;P2;SDS_P1;SDS_P2;PMS_P1;PMS_P2;Temp;Humidity;BMP_temperature;BMP_pressure;BME280_temperature;BME280_humidity;BME280_pressure;Samples;Min_cycle;Max_cycle;Signal;HPM_P1;HPM_P2
2024/04/12 00:01:12;;;;;;;16.58;10.00;;;;;;;;;;5344249;26;20001;-67
2024/04/12 00:03:38;;;;;;;18.38;11.60;;;;;;;;;;5344296;26;20037;-67
2024/04/12 00:06:17;;;;;;;16.70;10.60;;;;;;;;;;5344646;26;20456;-67
2024/04/12 00:08:46;;;;;;;16.65;10.75;;;;;;;;;;5344845;26;20539;-67
2024/04/12 00:11:12;;;;;;;16.92;10.20;;;;;;;;;;5344500;26;20005;-68
2024/04/12 00:13:41;;;;;;;15.13;10.77;;;;;;;;;;5330574;26;20055;-67
2024/04/12 00:16:10;;;;;;;17.08;10.73;;;;;;;;;;5344892;26;20016;-66
2024/04/12 00:18:37;;;;;;;15.50;9.95;;;;;;;;;;5344610;26;20032;-67
2024/04/12 00:21:05;;;;;;;14.65;9.48;;;;;;;;;;5343391;26;20005;-65
2024/04/12 00:23:35;;;;;;;16.83;10.15;;;;;;;;;;5344889;26;20034;-66
2024/04/12 00:26:01;;;;;;;16.08;9.88;;;;;;;;;;5344250;26;20014;-66
2024/04/12 00:28:30;;;;;;;21.83;10.25;;;;;;;;;;5344003;26;20104;-66
2024/04/12 00:30:59;;;;;;;27.27;9.57;;;;;;;;;;5344253;26;20001;-66
2024/04/12 00:33:31;;;;;;;17.27;8.45;;;;;;;;;;5344116;26;20135;-66
2024/04/12 00:35:57;;;;;;;14.48;8.88;;;;;;;;;;5344272;26;20004;-66
2024/04/12 00:38:23;;;;;;;15.90;9.38;;;;;;;;;;5344242;26;20005;-66
2024/04/12 00:40:52;;;;;;;13.68;8.55;;;;;;;;;;5344461;26;20306;-65
2024/04/12 00:43:19;;;;;;;17.95;9.43;;;;;;;;;;5343654;26;20468;-66
2024/04/12 00:45:49;;;;;;;16.02;9.55;;;;;;;;;;5344236;26;20345;-66
2024/04/12 00:48:15;;;;;;;13.98;8.93;;;;;;;;;;5343887;26;20004;-65
2024/04/12 00:50:46;;;;;;;15.43;9.07;;;;;;;;;;5344185;26;20103;-65
2024/04/12 00:53:13;;;;;;;13.50;8.45;;;;;;;;;;5343914;26;20008;-65
2024/04/12 00:55:40;;;;;;;13.77;7.88;;;;;;;;;;5343987;26;20001;-64
2024/04/12 00:58:09;;;;;;;15.60;8.05;;;;;;;;;;5343776;26;20020;-65
2024/04/12 01:00:35;;;;;;;13.18;8.45;;;;;;;;;;5343899;26;20001;-65
2024/04/12 01:03:05;;;;;;;16.63;7.53;;;;;;;;;;5343409;26;20005;-65
2024/04/12 01:05:38;;;;;;;11.68;7.63;;;;;;;;;;5343463;26;20005;-66
2024/04/12 01:08:06;;;;;;;12.00;7.78;;;;;;;;;;5343647;26;20465;-66
2024/04/12 01:10:36;;;;;;;14.50;8.25;;;;;;;;;;5343369;26;20070;-66
2024/04/12 01:13:04;;;;;;;11.17;7.43;;;;;;;;;;5343115;26;20048;-66
2024/04/12 01:15:36;;;;;;;14.32;7.25;;;;;;;;;;5343432;26;20001;-66
2024/04/12 01:18:11;;;;;;;11.85;7.45;;;;;;;;;;5344089;26;20005;-67
2024/04/12 01:20:39;;;;;;;12.13;7.57;;;;;;;;;;5343701;26;20016;-66
2024/04/12 01:23:06;;;;;;;14.93;7.18;;;;;;;;;;5343473;26;20495;-67
2024/04/12 01:25:32;;;;;;;11.38;6.88;;;;;;;;;;5355699;26;20001;-67
2024/04/12 01:27:58;;;;;;;11.27;7.43;;;;;;;;;;5343420;26;20479;-66
2024/04/12 01:30:24;;;;;;;13.80;7.47;;;;;;;;;;5343111;26;20139;-66
2024/04/12 01:32:50;;;;;;;10.52;6.78;;;;;;;;;;5343007;26;20518;-67
2024/04/12 01:35:17;;;;;;;10.60;6.70;;;;;;;;;;5343191;26;20017;-67
2024/04/12 01:37:43;;;;;;;8.68;5.60;;;;;;;;;;5343486;26;20413;-67
2024/04/12 01:40:12;;;;;;;13.70;6.72;;;;;;;;;;5343649;26;20001;-67
2024/04/12 01:42:42;;;;;;;10.10;5.88;;;;;;;;;;5342590;26;20001;-67
2024/04/12 01:45:14;;;;;;;9.35;5.80;;;;;;;;;;5341382;26;20005;-67
2024/04/12 01:47:45;;;;;;;9.70;5.85;;;;;;;;;;5343245;26;20015;-66
2024/04/12 01:50:12;;;;;;;11.80;6.10;;;;;;;;;;5342933;26;20001;-67
2024/04/12 01:52:54;;;;;;;8.40;6.00;;;;;;;;;;5342776;26;20762;-67
2024/04/12 01:55:19;;;;;;;;;;;;;;;;;;5343444;26;20012;-67
2024/04/12 01:57:51;;;;;;;8.27;5.30;;;;;;;;;;5343534;26;20569;-66
2024/04/12 02:00:17;;;;;;;9.45;5.93;;;;;;;;;;5341480;26;20078;-66
2024/04/12 02:02:46;;;;;;;8.07;4.97;;;;;;;;;;5342632;26;20001;-66
2024/04/12 02:05:12;;;;;;;7.88;5.75;;;;;;;;;;5342936;26;20019;-66
2024/04/12 02:07:39;;;;;;;9.30;5.47;;;;;;;;;;5342674;26;20009;-65
2024/04/12 02:10:11;;;;;;;8.68;5.75;;;;;;;;;;5343162;26;20041;-64
2024/04/12 02:12:45;;;;;;;8.98;5.60;;;;;;;;;;5342508;26;20019;-65
2024/04/12 02:15:25;;;;;;;8.95;5.78;;;;;;;;;;5343031;26;20005;-65
2024/04/12 02:17:57;;;;;;;10.43;5.40;;;;;;;;;;5343442;26;20005;-64
2024/04/12 02:20:36;;;;;;;8.30;5.10;;;;;;;;;;5342592;26;20001;-65
2024/04/12 02:23:05;;;;;;;13.93;5.72;;;;;;;;;;5342416;26;19997;-65
2024/04/12 02:25:35;;;;;;;7.75;4.97;;;;;;;;;;5342209;26;20001;-65
2024/04/12 02:28:07;;;;;;;12.63;5.13;;;;;;;;;;5342295;26;20009;-65
2024/04/12 02:30:41;;;;;;;10.00;5.10;;;;;;;;;;5342133;26;20023;-65
2024/04/12 02:33:08;;;;;;;8.20;4.85;;;;;;;;;;5342018;26;20510;-66
2024/04/12 02:35:34;;;;;;;7.63;5.18;;;;;;;;;;5342174;26;20019;-64
2024/04/12 02:38:00;;;;;;;7.97;4.60;;;;;;;;;;5342205;26;20016;-65
2024/04/12 02:40:26;;;;;;;6.07;4.30;;;;;;;;;;5342358;26;20483;-65
2024/04/12 02:42:52;;;;;;;6.28;4.20;;;;;;;;;;5340909;26;20001;-67
2024/04/12 02:45:18;;;;;;;6.85;4.75;;;;;;;;;;5340328;26;20000;-66
2024/04/12 02:47:44;;;;;;;6.18;4.38;;;;;;;;;;5342146;26;20033;-65
2024/04/12 02:50:10;;;;;;;10.07;4.63;;;;;;;;;;5342011;26;20001;-67
2024/04/12 02:52:40;;;;;;;5.97;4.28;;;;;;;;;;5342004;26;20005;-66
2024/04/12 02:55:12;;;;;;;9.20;4.88;;;;;;;;;;5342154;26;20045;-66
2024/04/12 02:57:42;;;;;;;5.78;3.95;;;;;;;;;;5342520;26;20001;-66
2024/04/12 03:00:21;;;;;;;7.13;4.32;;;;;;;;;;5342967;26;20012;-67
2024/04/12 03:02:54;;;;;;;8.32;4.63;;;;;;;;;;5341873;26;20700;-67
2024/04/12 03:05:20;;;;;;;8.07;3.95;;;;;;;;;;5342047;26;20056;-66
2024/04/12 03:07:46;;;;;;;6.63;4.05;;;;;;;;;;5341706;26;20013;-67
2024/04/12 03:10:18;;;;;;;6.75;3.95;;;;;;;;;;5341288;26;20563;-66
2024/04/12 03:12:44;;;;;;;8.20;4.10;;;;;;;;;;5341241;26;20048;-66
2024/04/12 03:15:10;;;;;;;7.18;4.55;;;;;;;;;;5341003;26;20020;-65
2024/04/12 03:17:36;;;;;;;7.43;4.47;;;;;;;;;;5340470;26;20019;-67
2024/04/12 03:20:03;;;;;;;7.50;3.90;;;;;;;;;;5340436;26;20092;-67
2024/04/12 03:22:30;;;;;;;5.60;3.55;;;;;;;;;;5339617;26;20357;-66
2024/04/12 03:24:56;;;;;;;6.03;4.00;;;;;;;;;;5340507;26;20001;-66
2024/04/12 03:27:22;;;;;;;5.72;3.70;;;;;;;;;;5340449;26;19997;-67
2024/04/12 03:29:49;;;;;;;8.60;3.75;;;;;;;;;;5340249;26;19997;-68
2024/04/12 03:32:15;;;;;;;6.50;3.60;;;;;;;;;;5339951;26;20005;-66
2024/04/12 03:34:41;;;;;;;8.68;3.40;;;;;;;;;;5340325;26;20001;-65
2024/04/12 03:37:36;;;;;;;9.60;4.18;;;;;;;;;;5340248;26;19997;-66
2024/04/12 03:40:07;;;;;;;8.02;3.97;;;;;;;;;;5340494;26;20275;-66
2024/04/12 03:42:33;;;;;;;4.80;3.13;;;;;;;;;;5339643;26;20082;-65
2024/04/12 03:45:04;;;;;;;5.13;3.60;;;;;;;;;;5340245;26;20017;-67
2024/04/12 03:47:37;;;;;;;6.13;3.10;;;;;;;;;;5339933;26;20051;-66
2024/04/12 03:50:12;;;;;;;7.63;3.65;;;;;;;;;;5340008;26;20020;-66
2024/04/12 03:52:41;;;;;;;7.50;3.40;;;;;;;;;;5339909;26;20060;-67
2024/04/12 03:55:08;;;;;;;6.70;3.65;;;;;;;;;;5340881;26;20041;-66
2024/04/12 03:57:38;;;;;;;6.45;2.90;;;;;;;;;;5343516;26;20016;-67
2024/04/12 04:00:10;;;;;;;8.63;3.42;;;;;;;;;;5343684;26;20029;-68
2024/04/12 04:02:36;;;;;;;8.93;3.45;;;;;;;;;;5343422;26;20070;-66
2024/04/12 04:05:14;;;;;;;6.97;3.28;;;;;;;;;;5343597;26;19997;-66
2024/04/12 04:07:41;;;;;;;7.38;2.97;;;;;;;;;;5343508;26;20015;-67
2024/04/12 04:10:13;;;;;;;9.23;3.78;;;;;;;;;;5343092;26;20064;-68
2024/04/12 04:12:44;;;;;;;8.20;3.13;;;;;;;;;;5342188;26;20471;-68
2024/04/12 04:15:11;;;;;;;8.80;3.08;;;;;;;;;;5343388;26;20001;-67
2024/04/12 04:17:37;;;;;;;7.40;3.17;;;;;;;;;;5343167;26;20083;-66
2024/04/12 04:20:06;;;;;;;8.80;3.22;;;;;;;;;;5342813;26;20433;-66
2024/04/12 04:25:00;;;;;;;4.60;2.53;;;;;;;;;;5343085;26;20315;-67
2024/04/12 04:27:26;;;;;;;7.90;3.42;;;;;;;;;;5343246;26;20075;-66
2024/04/12 04:29:56;;;;;;;6.10;3.40;;;;;;;;;;5343389;26;19997;-66
2024/04/12 04:32:22;;;;;;;5.50;3.15;;;;;;;;;;5342555;26;20402;-67
2024/04/12 04:34:55;;;;;;;5.68;3.00;;;;;;;;;;5343073;26;20043;-66
2024/04/12 04:37:27;;;;;;;5.00;3.20;;;;;;;;;;5342737;26;20078;-66
2024/04/12 04:39:53;;;;;;;12.63;2.78;;;;;;;;;;5343175;26;20001;-66
2024/04/12 04:42:23;;;;;;;9.77;3.33;;;;;;;;;;5342728;26;20016;-67
2024/04/12 04:44:49;;;;;;;6.95;2.72;;;;;;;;;;5343143;26;20103;-68
2024/04/12 04:47:15;;;;;;;8.80;3.47;;;;;;;;;;5342705;26;20033;-66
2024/04/12 04:49:42;;;;;;;11.65;3.45;;;;;;;;;;5344799;26;20028;-67
2024/04/12 04:52:08;;;;;;;14.77;3.72;;;;;;;;;;5345054;26;20056;-67
2024/04/12 04:54:39;;;;;;;7.40;3.00;;;;;;;;;;5345434;26;20016;-68
2024/04/12 04:57:06;;;;;;;5.13;2.60;;;;;;;;;;5345953;26;20005;-67
2024/04/12 04:59:32;;;;;;;10.18;2.78;;;;;;;;;;5345128;26;20461;-67
2024/04/12 05:02:00;;;;;;;6.00;2.30;;;;;;;;;;5345153;26;20015;-68
2024/04/12 05:04:31;;;;;;;5.63;2.45;;;;;;;;;;5345506;26;20009;-67
2024/04/12 05:06:58;;;;;;;3.92;2.45;;;;;;;;;;5345308;26;20005;-67
2024/04/12 05:09:27;;;;;;;4.45;2.20;;;;;;;;;;5345550;26;20020;-66
2024/04/12 05:11:53;;;;;;;4.57;2.25;;;;;;;;;;5345119;26;20029;-67
2024/04/12 05:17:05;;;;;;;5.60;2.47;;;;;;;;;;5334190;26;20001;-67
2024/04/12 05:19:40;;;;;;;3.97;2.40;;;;;;;;;;5345748;26;20029;-67
2024/04/12 05:22:13;;;;;;;5.53;2.17;;;;;;;;;;5345205;26;20000;-66
2024/04/12 05:24:40;;;;;;;4.28;2.28;;;;;;;;;;5345153;26;20483;-66
2024/04/12 05:27:06;;;;;;;3.78;2.33;;;;;;;;;;5345596;26;20015;-65
2024/04/12 05:29:33;;;;;;;5.00;2.20;;;;;;;;;;5345387;26;20001;-65
2024/04/12 05:31:59;;;;;;;9.55;2.42;;;;;;;;;;5345056;26;20001;-65
2024/04/12 05:34:28;;;;;;;4.95;2.35;;;;;;;;;;5345471;26;19997;-66
2024/04/12 05:36:59;;;;;;;4.93;2.50;;;;;;;;;;5345606;26;20021;-65
2024/04/12 05:39:25;;;;;;;5.63;2.40;;;;;;;;;;5345057;26;20042;-66
2024/04/12 05:41:53;;;;;;;3.03;1.52;;;;;;;;;;5344955;26;20004;-65
2024/04/12 05:44:22;;;;;;;9.23;2.13;;;;;;;;;;5345632;26;20001;-66
2024/04/12 05:46:48;;;;;;;4.75;1.83;;;;;;;;;;5345505;26;20441;-65
2024/04/12 05:49:15;;;;;;;4.15;1.95;;;;;;;;;;5343413;26;20005;-66
2024/04/12 05:51:42;;;;;;;4.20;1.85;;;;;;;;;;5344331;26;20001;-68
2024/04/12 05:54:15;;;;;;;7.00;1.92;;;;;;;;;;5343828;26;20015;-67
2024/04/12 05:56:41;;;;;;;3.28;1.60;;;;;;;;;;5345789;26;20461;-66
2024/04/12 05:59:13;;;;;;;3.67;1.60;;;;;;;;;;5345566;26;20013;-67
2024/04/12 06:01:43;;;;;;;3.95;1.90;;;;;;;;;;5345283;26;20032;-66
2024/04/12 06:04:10;;;;;;;5.20;2.00;;;;;;;;;;5345395;26;20071;-66
2024/04/12 06:06:40;;;;;;;5.95;1.65;;;;;;;;;;5345017;26;20354;-67
2024/04/12 06:09:06;;;;;;;5.45;1.77;;;;;;;;;;5345166;26;20346;-65
2024/04/12 06:11:36;;;;;;;6.57;1.58;;;;;;;;;;5344516;26;20484;-66
2024/04/12 06:14:02;;;;;;;4.40;1.98;;;;;;;;;;5345095;26;20005;-66
2024/04/12 06:16:29;;;;;;;3.45;1.60;;;;;;;;;;5344761;26;20074;-66
2024/04/12 06:18:58;;;;;;;4.32;1.70;;;;;;;;;;5343786;26;20056;-66
2024/04/12 06:21:24;;;;;;;2.15;1.52;;;;;;;;;;5344618;26;20015;-65
2024/04/12 06:23:54;;;;;;;6.38;1.85;;;;;;;;;;5363479;21;20008;-61
2024/04/12 06:26:22;;;;;;;3.50;1.35;;;;;;;;;;5344652;26;20108;-61
2024/04/12 06:28:48;;;;;;;4.72;1.80;;;;;;;;;;5342902;26;20349;-62
2024/04/12 06:31:20;;;;;;;6.97;1.70;;;;;;;;;;5344390;26;20023;-62
2024/04/12 06:33:48;;;;;;;7.07;2.08;;;;;;;;;;5344278;26;20019;-61
2024/04/12 06:36:16;;;;;;;3.97;1.67;;;;;;;;;;5344188;26;20009;-62
2024/04/12 06:38:42;;;;;;;3.13;1.23;;;;;;;;;;5344530;26;20113;-62
2024/04/12 06:41:10;;;;;;;3.85;1.20;;;;;;;;;;5344233;26;20001;-62
2024/04/12 06:43:42;;;;;;;5.28;1.75;;;;;;;;;;5344287;26;20005;-62
2024/04/12 06:46:08;;;;;;;5.45;1.60;;;;;;;;;;5344716;26;20004;-62
2024/04/12 06:48:41;;;;;;;2.75;1.25;;;;;;;;;;5343136;26;20335;-62
2024/04/12 06:51:11;;;;;;;3.08;1.58;;;;;;;;;;5344223;26;20005;-62
2024/04/12 06:53:44;;;;;;;2.70;1.60;;;;;;;;;;5344132;26;20005;-62
2024/04/12 06:56:15;;;;;;;2.70;1.30;;;;;;;;;;5344720;26;20330;-62
2024/04/12 06:58:41;;;;;;;5.30;1.83;;;;;;;;;;5343963;26;20032;-62
2024/04/12 07:01:07;;;;;;;3.70;1.55;;;;;;;;;;5344455;26;20519;-63
2024/04/12 07:03:36;;;;;;;2.17;1.40;;;;;;;;;;5343863;26;20095;-62
2024/04/12 07:06:03;;;;;;;2.25;1.30;;;;;;;;;;5344193;26;20001;-62
2024/04/12 07:08:29;;;;;;;3.28;1.50;;;;;;;;;;5344117;26;20009;-62
2024/04/12 07:10:56;;;;;;;5.63;1.80;;;;;;;;;;5346609;26;20001;-62
2024/04/12 07:13:27;;;;;;;5.38;1.42;;;;;;;;;;5350626;26;20040;-63
2024/04/12 07:15:55;;;;;;;4.43;1.73;;;;;;;;;;5350811;26;20004;-62
2024/04/12 07:18:26;;;;;;;2.95;1.35;;;;;;;;;;5354481;26;20001;-61
2024/04/12 07:20:58;;;;;;;4.75;1.73;;;;;;;;;;5351670;26;20017;-62
2024/04/12 07:23:25;;;;;;;2.20;1.48;;;;;;;;;;5352997;26;20060;-62
2024/04/12 07:25:52;;;;;;;6.47;1.52;;;;;;;;;;5345181;26;20005;-62
2024/04/12 07:28:18;;;;;;;4.32;1.80;;;;;;;;;;5343878;26;20016;-62
2024/04/12 07:30:45;;;;;;;3.72;1.40;;;;;;;;;;5346867;26;20001;-63
2024/04/12 07:33:14;;;;;;;1.83;0.98;;;;;;;;;;5346592;26;20001;-62
2024/04/12 07:35:48;;;;;;;3.20;1.30;;;;;;;;;;5346588;26;20052;-61
2024/04/12 07:38:14;;;;;;;3.08;1.52;;;;;;;;;;5346796;26;20032;-60
2024/04/12 07:40:43;;;;;;;6.55;1.98;;;;;;;;;;5346901;26;20008;-60
2024/04/12 07:43:09;;;;;;;9.43;1.80;;;;;;;;;;5346982;26;20017;-60
2024/04/12 07:45:44;;;;;;;4.85;1.30;;;;;;;;;;5346680;26;20005;-59
2024/04/12 07:50:53;;;;;;;6.68;1.48;;;;;;;;;;5346403;26;20001;-60
2024/04/12 07:53:23;;;;;;;3.58;1.52;;;;;;;;;;5330291;26;20424;-61
2024/04/12 07:56:07;;;;;;;5.60;1.70;;;;;;;;;;5328027;26;20353;-62
2024/04/12 07:58:36;;;;;;;2.95;1.40;;;;;;;;;;5330053;26;20029;-61
2024/04/12 08:01:25;;;;;;;3.83;1.05;;;;;;;;;;5328878;26;20009;-60
2024/04/12 08:04:22;;;;;;;3.45;1.52;;;;;;;;;;5336504;26;20073;-61
2024/04/12 08:09:21;;;;;;;6.88;1.25;;;;;;;;;;5311990;26;20009;-59
2024/04/12 08:11:51;;;;;;;7.97;2.22;;;;;;;;;;5333186;26;20082;-60
2024/04/12 08:14:22;;;;;;;8.90;2.03;;;;;;;;;;5318682;26;20449;-62
2024/04/12 08:16:52;;;;;;;5.88;1.50;;;;;;;;;;5318987;26;20079;-61
2024/04/12 08:19:21;;;;;;;6.60;1.27;;;;;;;;;;5328785;26;20021;-61
2024/04/12 08:21:48;;;;;;;4.53;1.60;;;;;;;;;;5327423;26;20009;-60
2024/04/12 08:24:22;;;;;;;2.13;1.30;;;;;;;;;;5351367;26;20001;-59
2024/04/12 08:26:48;;;;;;;3.78;1.13;;;;;;;;;;5348977;26;20016;-58
2024/04/12 08:29:20;;;;;;;3.22;1.55;;;;;;;;;;5349346;26;20075;-60
2024/04/12 08:31:49;;;;;;;4.03;1.25;;;;;;;;;;5346478;26;20470;-62
2024/04/12 08:34:15;;;;;;;12.88;2.15;;;;;;;;;;5343893;26;19997;-61
2024/04/12 08:36:43;;;;;;;5.70;1.23;;;;;;;;;;5345865;26;20001;-60
2024/04/12 08:39:12;;;;;;;2.05;1.25;;;;;;;;;;5346062;26;19996;-60
2024/04/12 08:41:38;;;;;;;2.58;1.15;;;;;;;;;;5344975;26;20005;-60
2024/04/12 08:44:10;;;;;;;2.58;1.17;;;;;;;;;;5341928;26;20009;-61
2024/04/12 08:46:37;;;;;;;2.75;0.88;;;;;;;;;;5336612;26;20002;-60
2024/04/12 08:49:13;;;;;;;1.75;0.70;;;;;;;;;;5309822;26;20045;-60
2024/04/12 08:51:40;;;;;;;2.05;1.17;;;;;;;;;;5311122;26;20005;-59
2024/04/12 08:54:06;;;;;;;2.47;1.30;;;;;;;;;;5311373;26;20006;-62
2024/04/12 08:56:35;;;;;;;6.85;2.25;;;;;;;;;;5322379;26;20416;-62
2024/04/12 08:59:07;;;;;;;5.53;1.98;;;;;;;;;;5322983;26;20055;-61
2024/04/12 09:01:35;;;;;;;7.15;2.50;;;;;;;;;;5311101;27;20481;-64
2024/04/12 09:04:14;;;;;;;6.60;2.42;;;;;;;;;;5311086;26;20017;-62
2024/04/12 09:06:40;;;;;;;22.58;2.55;;;;;;;;;;5311418;26;20013;-63
2024/04/12 09:09:13;;;;;;;12.63;1.90;;;;;;;;;;5311371;27;20009;-63
2024/04/12 09:11:39;;;;;;;9.73;2.03;;;;;;;;;;5321055;26;20012;-62
2024/04/12 09:14:19;;;;;;;10.73;2.17;;;;;;;;;;5327685;26;20329;-62
2024/04/12 09:16:47;;;;;;;7.05;1.73;;;;;;;;;;5327864;26;20071;-62
2024/04/12 09:19:14;;;;;;;9.63;1.63;;;;;;;;;;5329078;26;20460;-62
2024/04/12 09:21:58;;;;;;;2.63;1.40;;;;;;;;;;5316507;26;20006;-62
2024/04/12 09:24:31;;;;;;;2.83;1.23;;;;;;;;;;5311305;26;20006;-62
2024/04/12 09:26:58;;;;;;;3.35;1.20;;;;;;;;;;5311118;26;20590;-62
2024/04/12 09:29:26;;;;;;;3.90;1.25;;;;;;;;;;5320164;26;19993;-62
2024/04/12 09:34:39;;;;;;;6.32;1.23;;;;;;;;;;5342179;26;20551;-62
2024/04/12 09:37:29;;;;;;;4.40;1.48;;;;;;;;;;5343433;26;20019;-62
2024/04/12 09:42:50;;;;;;;3.22;1.00;;;;;;;;;;5342468;26;20013;-62
2024/04/12 09:45:19;;;;;;;7.25;1.52;;;;;;;;;;5343654;26;19997;-62
2024/04/12 10:37:44;;;;;;;5.13;0.80;;;;;;;;;;5345056;26;20348;-62
2024/04/12 10:40:11;;;;;;;1.50;0.80;;;;;;;;;;5344233;26;20440;-63
2024/04/12 10:42:45;;;;;;;1.95;0.85;;;;;;;;;;5344000;26;20005;-66
2024/04/12 10:45:15;;;;;;;2.67;1.15;;;;;;;;;;5344354;26;20079;-63
2024/04/12 10:47:44;;;;;;;3.70;0.82;;;;;;;;;;5344456;26;20001;-64
2024/04/12 10:50:10;;;;;;;2.35;1.30;;;;;;;;;;5342413;26;20001;-64
2024/04/12 10:52:38;;;;;;;3.65;0.85;;;;;;;;;;5343865;26;20437;-64
2024/04/12 10:55:09;;;;;;;2.55;0.80;;;;;;;;;;5344126;26;20025;-64
2024/04/12 10:57:40;;;;;;;1.95;0.88;;;;;;;;;;5344910;26;20005;-64
2024/04/12 11:00:06;;;;;;;;;;;;;;;;;;5345398;26;20461;-64
2024/04/12 11:02:33;;;;;;;1.05;0.57;;;;;;;;;;5346339;26;19926;-64
2024/04/12 11:05:05;;;;;;;5.93;0.95;;;;;;;;;;5348407;26;20013;-63
2024/04/12 11:07:31;;;;;;;2.78;0.85;;;;;;;;;;5348841;26;20001;-64
2024/04/12 11:09:57;;;;;;;6.38;1.58;;;;;;;;;;5347708;26;20061;-64
2024/04/12 11:12:40;;;;;;;6.47;2.08;;;;;;;;;;5346851;26;20001;-65
2024/04/12 11:31:55;;;;;;;4.15;0.93;;;;;;;;;;5346593;26;20015;-62
2024/04/12 11:34:21;;;;;;;7.70;1.92;;;;;;;;;;5346784;26;20013;-62
2024/04/12 11:36:47;;;;;;;3.33;1.10;;;;;;;;;;5347081;26;20373;-63
2024/04/12 11:39:17;;;;;;;8.82;1.30;;;;;;;;;;5346556;26;20009;-62
2024/04/12 11:41:46;;;;;;;3.63;1.33;;;;;;;;;;5330785;26;20381;-62
2024/04/12 11:44:21;;;;;;;6.78;1.55;;;;;;;;;;5346391;26;20044;-62
2024/04/12 11:46:49;;;;;;;2.97;1.42;;;;;;;;;;5346680;26;20023;-62
2024/04/12 11:49:25;;;;;;;3.67;1.10;;;;;;;;;;5346669;26;20345;-62
2024/04/12 11:51:55;;;;;;;2.10;0.65;;;;;;;;;;5346256;26;20461;-61
2024/04/12 11:54:22;;;;;;;4.65;1.02;;;;;;;;;;5346946;26;20500;-61
2024/04/12 11:56:49;;;;;;;1.70;0.68;;;;;;;;;;5346909;26;20005;-63
2024/04/12 11:59:18;;;;;;;2.83;1.38;;;;;;;;;;5343789;26;20019;-62
2024/04/12 12:01:44;;;;;;;4.35;1.25;;;;;;;;;;5343319;26;20001;-62
2024/04/12 12:04:11;;;;;;;2.17;1.38;;;;;;;;;;5343077;26;20428;-62
2024/04/12 12:06:38;;;;;;;2.40;1.05;;;;;;;;;;5343803;26;20009;-61
2024/04/12 12:09:11;;;;;;;1.77;0.80;;;;;;;;;;5337052;26;20013;-62
2024/04/12 12:11:43;;;;;;;3.70;1.27;;;;;;;;;;5310100;26;20013;-62
2024/04/12 12:14:09;;;;;;;1.60;0.93;;;;;;;;;;5310842;26;20029;-62
2024/04/12 12:16:36;;;;;;;2.58;0.90;;;;;;;;;;5310591;26;20009;-63
2024/04/12 12:19:06;;;;;;;3.22;1.00;;;;;;;;;;5311172;26;20006;-63
2024/04/12 12:21:32;;;;;;;1.50;1.40;;;;;;;;;;5311717;26;20006;-63
2024/04/12 12:23:59;;;;;;;3.53;1.95;;;;;;;;;;5312117;26;20033;-62
2024/04/12 12:26:25;;;;;;;2.67;1.50;;;;;;;;;;5311758;26;20009;-63
2024/04/12 12:28:51;;;;;;;3.95;1.92;;;;;;;;;;5311515;26;20075;-63
2024/04/12 12:31:18;;;;;;;5.75;2.33;;;;;;;;;;5311236;26;20014;-62
2024/04/12 12:33:45;;;;;;;3.35;1.73;;;;;;;;;;5340330;26;20025;-62
2024/04/12 12:36:11;;;;;;;3.45;2.45;;;;;;;;;;5346096;26;20460;-62
2024/04/12 12:38:41;;;;;;;7.13;2.47;;;;;;;;;;5346178;26;19997;-63
2024/04/12 12:41:08;;;;;;;4.45;3.03;;;;;;;;;;5346074;26;20005;-62
2024/04/12 12:43:34;;;;;;;3.45;1.90;;;;;;;;;;5345394;26;20017;-62
2024/04/12 12:46:00;;;;;;;2.88;1.98;;;;;;;;;;5343555;26;19997;-62
2024/04/12 12:48:27;;;;;;;3.17;1.55;;;;;;;;;;5345666;26;20067;-62
2024/04/12 12:51:00;;;;;;;4.05;2.45;;;;;;;;;;5345625;26;20372;-63
2024/04/12 12:53:30;;;;;;;2.80;1.52;;;;;;;;;;5345676;26;20707;-63
2024/04/12 12:55:56;;;;;;;12.50;2.20;;;;;;;;;;5345927;26;20052;-63
2024/04/12 12:58:25;;;;;;;6.15;1.90;;;;;;;;;;5345180;26;20082;-64
2024/04/12 13:00:51;;;;;;;3.72;1.75;;;;;;;;;;5345867;26;20016;-63
2024/04/12 13:03:17;;;;;;;2.03;1.25;;;;;;;;;;5345317;26;20056;-63
2024/04/12 13:05:48;;;;;;;6.15;2.10;;;;;;;;;;5345539;26;20048;-65
2024/04/12 13:08:15;;;;;;;7.53;2.55;;;;;;;;;;5345633;26;20013;-65
2024/04/12 13:10:48;;;;;;;3.35;1.63;;;;;;;;;;5344019;26;20005;-66
2024/04/12 13:13:23;;;;;;;5.35;1.70;;;;;;;;;;5345024;26;20033;-66
2024/04/12 13:15:56;;;;;;;5.32;1.70;;;;;;;;;;5345520;26;20001;-65
2024/04/12 13:18:22;;;;;;;3.95;1.80;;;;;;;;;;5345490;26;20483;-67
2024/04/12 13:20:51;;;;;;;5.03;1.65;;;;;;;;;;5345721;26;20001;-67
2024/04/12 13:23:18;;;;;;;4.00;1.45;;;;;;;;;;5345367;26;20005;-66
2024/04/12 13:25:47;;;;;;;4.28;1.27;;;;;;;;;;5345084;26;20330;-66
2024/04/12 13:28:13;;;;;;;2.17;1.50;;;;;;;;;;5345083;26;20571;-66
2024/04/12 13:30:42;;;;;;;2.08;1.20;;;;;;;;;;5351478;26;20005;-67
2024/04/12 13:33:08;;;;;;;2.03;1.35;;;;;;;;;;5350698;26;20089;-65
2024/04/12 13:35:40;;;;;;;6.15;1.92;;;;;;;;;;5322267;26;20032;-67
2024/04/12 13:38:12;;;;;;;3.42;1.25;;;;;;;;;;5316709;27;20002;-66
2024/04/12 13:40:40;;;;;;;3.42;1.27;;;;;;;;;;5314432;26;19998;-66
2024/04/12 13:43:06;;;;;;;3.30;1.48;;;;;;;;;;5312076;26;20442;-64
2024/04/12 13:51:02;;;;;;;3.42;1.80;;;;;;;;;;5344741;26;20015;-63
2024/04/12 13:53:36;;;;;;;2.53;1.10;;;;;;;;;;5344628;26;20005;-64
2024/04/12 13:59:10;;;;;;;5.18;1.25;;;;;;;;;;5272886;27;20006;-64
2024/04/12 14:01:41;;;;;;;2.47;1.13;;;;;;;;;;5273427;27;20406;-63
2024/04/12 14:04:17;;;;;;;3.40;1.08;;;;;;;;;;5292294;26;20005;-64
2024/04/12 14:06:46;;;;;;;5.25;1.70;;;;;;;;;;5311267;26;20014;-63
2024/04/12 14:09:13;;;;;;;4.03;1.38;;;;;;;;;;5312109;26;20523;-62
2024/04/12 14:11:42;;;;;;;3.88;1.27;;;;;;;;;;5310485;26;20464;-63
2024/04/12 14:14:08;;;;;;;3.85;1.08;;;;;;;;;;5310175;26;20013;-61
2024/04/12 14:16:41;;;;;;;8.95;1.63;;;;;;;;;;5309578;26;20076;-61
2024/04/12 14:19:17;;;;;;;4.30;1.33;;;;;;;;;;5310178;26;20002;-61
2024/04/12 14:21:45;;;;;;;31.55;1.63;;;;;;;;;;5309770;26;20015;-64
2024/04/12 14:24:56;;;;;;;8.65;1.20;;;;;;;;;;5313410;26;20008;-61
2024/04/12 14:26:58;;;;;;;5.13;1.13;;;;;;;;;;5324221;26;20491;-61
2024/04/12 14:29:26;;;;;;;22.88;1.77;;;;;;;;;;5330129;26;20332;-61
2024/04/12 14:31:55;;;;;;;4.95;0.95;;;;;;;;;;5314278;26;19997;-61
2024/04/12 14:34:21;;;;;;;3.58;1.10;;;;;;;;;;5338121;26;20024;-61
2024/04/12 14:36:47;;;;;;;5.05;1.13;;;;;;;;;;5335100;26;20005;-61
2024/04/12 14:39:15;;;;;;;2.20;0.95;;;;;;;;;;5340417;26;20357;-60
2024/04/12 14:41:42;;;;;;;8.43;1.65;;;;;;;;;;5344330;26;20016;-61
2024/04/12 14:44:08;;;;;;;7.03;1.75;;;;;;;;;;5344186;26;20460;-61
2024/04/12 14:46:35;;;;;;;4.07;1.17;;;;;;;;;;5344180;26;20015;-64
2024/04/12 14:49:01;;;;;;;8.25;1.23;;;;;;;;;;5344392;26;20468;-63
2024/04/12 14:51:30;;;;;;;3.83;1.35;;;;;;;;;;5344068;26;20495;-62
2024/04/12 14:53:58;;;;;;;1.75;1.00;;;;;;;;;;5343584;26;20479;-65
2024/04/12 14:56:24;;;;;;;1.67;0.80;;;;;;;;;;5344389;26;20001;-65
2024/04/12 14:58:56;;;;;;;10.70;1.13;;;;;;;;;;5343790;26;20020;-62
2024/04/12 15:01:22;;;;;;;4.38;1.40;;;;;;;;;;5342101;26;20016;-63
2024/04/12 15:50:32;;;;;;;4.35;0.73;;;;;;;;;;5357325;26;19996;-63
2024/04/12 15:53:18;;;;;;;1.30;0.65;;;;;;;;;;5348763;26;19997;-63
2024/04/12 16:12:14;;;;;;;2.08;0.80;;;;;;;;;;5341077;26;20011;-64
2024/04/12 16:14:40;;;;;;;11.45;1.50;;;;;;;;;;5313603;27;19997;-64
2024/04/12 16:17:07;;;;;;;2.45;1.13;;;;;;;;;;5339230;26;20353;-65
2024/04/12 16:19:33;;;;;;;5.60;0.93;;;;;;;;;;5346453;26;20005;-65
2024/04/12 16:22:01;;;;;;;2.88;0.75;;;;;;;;;;5327192;26;20001;-63
2024/04/12 16:24:27;;;;;;;1.92;0.77;;;;;;;;;;5312216;26;20335;-65
2024/04/12 16:26:53;;;;;;;3.33;1.20;;;;;;;;;;5311543;26;20079;-65
2024/04/12 16:29:19;;;;;;;4.38;0.98;;;;;;;;;;5330826;26;20012;-64
2024/04/12 16:31:45;;;;;;;2.80;0.90;;;;;;;;;;5311054;26;20465;-64
2024/04/12 16:34:13;;;;;;;1.30;1.00;;;;;;;;;;5311618;27;20001;-65
2024/04/12 16:36:41;;;;;;;2.60;1.15;;;;;;;;;;5340572;26;19997;-64
2024/04/12 16:39:07;;;;;;;3.67;0.82;;;;;;;;;;5329114;26;20017;-66
2024/04/12 16:41:33;;;;;;;7.63;1.33;;;;;;;;;;5340220;26;19997;-64
2024/04/12 16:44:02;;;;;;;8.23;0.90;;;;;;;;;;5315615;26;20040;-65
2024/04/12 16:46:29;;;;;;;1.63;0.90;;;;;;;;;;5330927;26;20352;-63
2024/04/12 16:48:55;;;;;;;4.10;1.00;;;;;;;;;;5309851;26;20020;-64
2024/04/12 16:51:21;;;;;;;3.42;0.85;;;;;;;;;;5311636;26;20493;-65
2024/04/12 16:53:47;;;;;;;5.85;1.52;;;;;;;;;;5311261;26;20020;-64
2024/04/12 16:56:13;;;;;;;4.32;1.48;;;;;;;;;;5329407;26;20008;-64
2024/04/12 16:58:39;;;;;;;3.35;1.00;;;;;;;;;;5327875;26;20001;-63
2024/04/12 17:01:09;;;;;;;2.75;0.80;;;;;;;;;;5338825;26;20011;-63
2024/04/12 17:03:35;;;;;;;4.25;1.20;;;;;;;;;;5345008;26;20004;-63
2024/04/12 17:06:03;;;;;;;7.60;1.60;;;;;;;;;;5345878;26;20032;-63
2024/04/12 17:08:29;;;;;;;4.05;2.70;;;;;;;;;;5345695;26;20001;-63
2024/04/12 17:10:55;;;;;;;7.47;2.83;;;;;;;;;;5345832;26;20008;-63
2024/04/12 17:13:22;;;;;;;4.60;3.45;;;;;;;;;;5345442;26;20480;-63
2024/04/12 17:15:48;;;;;;;6.10;3.97;;;;;;;;;;5346622;26;20005;-63
2024/04/12 17:18:15;;;;;;;9.55;5.40;;;;;;;;;;5346146;26;20052;-62
2024/04/12 17:20:42;;;;;;;8.90;5.38;;;;;;;;;;5348100;26;20074;-62
2024/04/12 17:23:11;;;;;;;11.25;5.65;;;;;;;;;;5345435;26;20011;-63
2024/04/12 17:25:37;;;;;;;11.63;6.60;;;;;;;;;;5345795;26;20015;-62